createdAt,value
2019-05-04T00:02:00.281Z,13.07
2019-05-04T00:04:29.253Z,14.53
2019-05-04T00:06:56.537Z,13.87
2019-05-04T00:09:25.371Z,11.73
2019-05-04T00:11:52.746Z,12.80
2019-05-04T00:14:20.002Z,12.67
2019-05-04T00:16:47.281Z,13.10
2019-05-04T00:19:15.413Z,14.50
2019-05-04T00:21:42.691Z,14.00
2019-05-04T00:24:09.934Z,15.63
2019-05-04T00:26:37.215Z,14.07
2019-05-04T00:29:05.512Z,13.53
2019-05-04T00:31:34.646Z,14.40
2019-05-04T00:34:04.893Z,14.70
2019-05-04T00:36:44.540Z,13.70
2019-05-04T00:39:15.309Z,11.87
2019-05-04T00:41:44.795Z,13.73
2019-05-04T00:44:12.445Z,15.07
2019-05-04T00:46:39.730Z,13.07
2019-05-04T00:49:07.054Z,12.80
2019-05-04T00:51:35.146Z,14.37
2019-05-04T00:54:02.561Z,14.83
2019-05-04T00:56:31.476Z,15.23
2019-05-04T00:59:00.503Z,14.33
2019-05-04T01:01:35.701Z,14.10
2019-05-04T01:04:04.927Z,15.10
2019-05-04T01:06:32.106Z,14.60
2019-05-04T01:08:59.354Z,13.77
2019-05-04T01:11:26.614Z,15.57
2019-05-04T01:13:55.279Z,15.30
2019-05-04T01:16:24.743Z,15.53
2019-05-04T01:18:51.705Z,15.93
2019-05-04T01:21:18.950Z,15.50
2019-05-04T01:23:46.217Z,13.37
2019-05-04T01:26:15.149Z,14.73
2019-05-04T01:28:42.465Z,15.10
2019-05-04T01:31:09.718Z,16.73
2019-05-04T01:33:55.085Z,14.37
2019-05-04T01:36:25.397Z,15.13
2019-05-04T01:38:55.374Z,14.50
2019-05-04T01:41:36.441Z,17.97
2019-05-04T01:44:09.406Z,13.13
2019-05-04T01:46:36.107Z,17.33
2019-05-04T01:49:05.253Z,15.53
2019-05-04T01:51:32.687Z,15.40
2019-05-04T01:54:00.025Z,16.70
2019-05-04T01:56:30.634Z,18.33
2019-05-04T01:58:59.715Z,17.80
2019-05-04T02:01:26.968Z,16.83
2019-05-04T02:03:55.249Z,17.40
2019-05-04T02:06:24.790Z,20.27
2019-05-04T02:08:59.343Z,29.07
2019-05-04T02:11:26.670Z,18.73
2019-05-04T02:13:55.808Z,18.83
2019-05-04T02:16:25.184Z,20.53
2019-05-04T02:18:52.150Z,20.47
2019-05-04T02:21:21.043Z,21.50
2019-05-04T02:23:48.318Z,23.30
2019-05-04T02:26:17.479Z,22.37
2019-05-04T02:28:46.389Z,21.17
2019-05-04T02:31:16.406Z,20.90
2019-05-04T02:33:42.638Z,19.83
2019-05-04T02:36:09.968Z,23.60
2019-05-04T02:38:37.241Z,20.70
2019-05-04T02:41:16.013Z,20.57
2019-05-04T02:43:46.036Z,21.90
2019-05-04T02:46:15.555Z,21.47
2019-05-04T02:48:45.412Z,21.50
2019-05-04T02:51:19.119Z,23.33
2019-05-04T02:53:46.517Z,23.00
2019-05-04T02:56:16.417Z,21.77
2019-05-04T02:58:45.509Z,24.07
2019-05-04T03:01:11.866Z,22.10
2019-05-04T03:03:39.131Z,22.70
2019-05-04T03:06:06.399Z,22.00
2019-05-04T03:08:37.726Z,24.93
2019-05-04T03:11:05.668Z,24.47
2019-05-04T03:13:31.641Z,24.97
2019-05-04T03:15:58.930Z,24.10
2019-05-04T03:18:27.887Z,24.40
2019-05-04T03:20:59.829Z,21.23
2019-05-04T03:23:27.296Z,24.70
2019-05-04T03:25:56.129Z,22.43
2019-05-04T03:28:25.374Z,21.20
2019-05-04T03:30:52.496Z,23.73
2019-05-04T03:33:20.312Z,23.63
2019-05-04T03:35:57.805Z,23.50
2019-05-04T03:38:16.681Z,19.10
2019-05-04T03:40:46.211Z,20.67
2019-05-04T03:43:15.897Z,19.23
2019-05-04T03:45:49.768Z,20.40
2019-05-04T03:48:18.666Z,22.43
2019-05-04T03:50:47.573Z,21.77
2019-05-04T03:53:15.400Z,21.50
2019-05-04T03:55:45.290Z,19.87
2019-05-04T03:58:11.754Z,19.77
2019-05-04T04:00:39.090Z,19.93
2019-05-04T04:03:06.615Z,18.30
2019-05-04T04:05:36.094Z,18.37
2019-05-04T04:08:05.735Z,15.97
2019-05-04T04:10:31.843Z,15.60
2019-05-04T04:12:59.194Z,15.63
2019-05-04T04:15:26.954Z,15.40
2019-05-04T04:17:56.106Z,13.50
2019-05-04T04:20:25.850Z,7.40
2019-05-04T04:22:55.217Z,6.50
2019-05-04T04:25:26.024Z,6.83
2019-05-04T04:27:55.980Z,6.07
2019-05-04T04:30:25.799Z,4.87
2019-05-04T04:32:52.378Z,4.10
2019-05-04T04:35:19.688Z,4.40
2019-05-04T04:37:46.976Z,4.40
2019-05-04T04:40:16.098Z,3.87
2019-05-04T04:42:45.045Z,3.10
2019-05-04T04:45:15.542Z,3.47
2019-05-04T04:47:41.292Z,2.90
2019-05-04T04:50:09.680Z,1.70
2019-05-04T04:52:36.941Z,1.77
2019-05-04T04:55:16.636Z,1.63
2019-05-04T04:57:36.351Z,1.47
2019-05-04T05:00:15.022Z,1.23
2019-05-04T05:02:46.375Z,1.10
2019-05-04T05:05:10.208Z,1.40
2019-05-04T05:07:37.475Z,1.10
2019-05-04T05:10:06.115Z,0.70
2019-05-04T05:12:34.844Z,0.87
2019-05-04T05:15:04.371Z,0.90
2019-05-04T05:17:31.197Z,1.10
2019-05-04T05:19:58.699Z,0.93
2019-05-04T05:22:26.220Z,0.70
2019-05-04T05:24:54.971Z,1.10
2019-05-04T05:27:22.385Z,2.50
2019-05-04T05:29:49.902Z,1.00
2019-05-04T05:32:21.714Z,0.90
2019-05-04T05:34:54.494Z,0.80
2019-05-04T05:37:21.764Z,0.70
2019-05-04T05:39:57.618Z,0.73
2019-05-04T05:42:18.866Z,1.30
2019-05-04T05:44:46.697Z,0.70
2019-05-04T05:47:24.391Z,0.90
2019-05-04T05:49:59.767Z,1.40
2019-05-04T05:52:40.711Z,2.37
2019-05-04T05:55:17.667Z,1.33
2019-05-04T05:58:00.572Z,0.90
2019-05-04T06:00:39.862Z,0.90
2019-05-04T06:03:25.963Z,1.10
2019-05-04T06:05:54.524Z,1.10
2019-05-04T06:08:25.155Z,1.00
2019-05-04T06:10:56.285Z,11.37
2019-05-04T06:13:33.905Z,1.87
2019-05-04T06:16:16.892Z,1.53
2019-05-04T06:18:57.250Z,1.30
2019-05-04T06:21:39.997Z,0.87
2019-05-04T06:24:20.259Z,0.70
2019-05-04T06:27:06.589Z,0.70
2019-05-04T06:29:34.372Z,0.80
2019-05-04T06:32:05.061Z,0.90
2019-05-04T06:34:46.344Z,0.70
2019-05-04T06:37:20.298Z,0.80
2019-05-04T06:39:49.103Z,1.57
2019-05-04T06:42:20.535Z,0.80
2019-05-04T06:44:57.098Z,0.70
2019-05-04T06:47:26.058Z,0.67
2019-05-04T06:49:54.938Z,0.80
2019-05-04T06:52:30.052Z,0.70
2019-05-04T06:55:10.936Z,8.43
2019-05-04T06:57:40.795Z,5.80
2019-05-04T07:00:01.625Z,1.60
2019-05-04T07:02:30.446Z,1.30
2019-05-04T07:04:57.969Z,1.50
2019-05-04T07:07:26.201Z,1.23
2019-05-04T07:09:54.751Z,1.03
2019-05-04T07:12:25.909Z,1.20
2019-05-04T07:14:51.158Z,0.90
2019-05-04T07:17:18.865Z,1.53
2019-05-04T07:19:46.494Z,1.10
2019-05-04T07:22:15.026Z,0.97
2019-05-04T07:24:44.249Z,1.00
2019-05-04T07:27:16.654Z,1.30
2019-05-04T07:29:40.280Z,0.87
2019-05-04T07:32:09.159Z,1.00
2019-05-04T07:34:41.377Z,1.00
2019-05-04T07:37:25.009Z,1.03
2019-05-04T07:40:07.415Z,0.87
2019-05-04T07:42:33.439Z,0.90
2019-05-04T07:44:59.631Z,6.90
2019-05-04T07:47:29.589Z,3.47
2019-05-04T07:49:56.999Z,0.93
2019-05-04T07:52:27.902Z,0.60
2019-05-04T07:54:55.138Z,1.00
2019-05-04T07:57:24.823Z,1.30
2019-05-04T07:59:51.456Z,0.90
2019-05-04T08:02:18.702Z,0.87
2019-05-04T08:04:48.575Z,0.90
2019-05-04T08:07:14.926Z,0.90
2019-05-04T08:09:45.637Z,1.20
2019-05-04T08:12:14.732Z,0.70
2019-05-04T08:14:47.647Z,1.00
2019-05-04T08:17:11.303Z,1.00
2019-05-04T08:19:40.577Z,0.90
2019-05-04T08:22:11.382Z,1.37
2019-05-04T08:24:36.758Z,0.90
2019-05-04T08:27:08.537Z,1.10
2019-05-04T08:29:34.798Z,1.33
2019-05-04T08:32:05.779Z,1.20
2019-05-04T08:34:31.464Z,1.97
2019-05-04T08:36:58.709Z,1.70
2019-05-04T08:39:29.228Z,1.70
2019-05-04T08:42:04.124Z,1.20
2019-05-04T08:44:24.978Z,1.00
2019-05-04T08:46:56.402Z,1.30
2019-05-04T08:49:31.839Z,1.50
2019-05-04T08:52:04.968Z,1.37
2019-05-04T08:54:29.216Z,1.10
2019-05-04T08:57:00.303Z,1.20
2019-05-04T08:59:27.672Z,1.83
2019-05-04T09:01:58.549Z,1.27
2019-05-04T09:04:28.695Z,1.60
2019-05-04T09:07:03.654Z,1.57
2019-05-04T09:09:26.665Z,1.30
2019-05-04T09:11:54.386Z,1.50
2019-05-04T09:14:30.079Z,1.30
2019-05-04T09:16:50.609Z,1.50
2019-05-04T09:19:19.387Z,1.50
2019-05-04T09:21:52.117Z,1.37
2019-05-04T09:24:16.027Z,1.63
2019-05-04T09:26:48.940Z,1.60
2019-05-04T09:29:12.255Z,2.37
2019-05-04T09:31:39.521Z,1.60
2019-05-04T09:34:07.020Z,1.40
2019-05-04T09:36:36.429Z,1.60
2019-05-04T09:39:05.088Z,1.50
2019-05-04T09:41:34.227Z,1.67
2019-05-04T09:44:06.215Z,1.80
2019-05-04T09:46:30.494Z,2.13
2019-05-04T09:48:57.737Z,2.27
2019-05-04T09:51:30.754Z,2.00
2019-05-04T09:53:55.597Z,2.10
2019-05-04T09:56:24.559Z,2.90
2019-05-04T09:58:56.617Z,2.60
2019-05-04T10:01:20.864Z,3.60
2019-05-04T10:03:48.114Z,3.37
2019-05-04T10:06:15.386Z,4.73
2019-05-04T10:08:44.439Z,3.23
2019-05-04T10:11:15.005Z,4.10
2019-05-04T10:13:52.951Z,4.97
2019-05-04T10:16:38.405Z,5.23
2019-05-04T10:19:05.731Z,4.70
2019-05-04T10:21:34.217Z,4.50
2019-05-04T10:24:01.622Z,6.27
2019-05-04T10:26:30.538Z,5.40
2019-05-04T10:29:04.387Z,8.27
2019-05-04T10:31:31.559Z,5.60
2019-05-04T10:33:58.824Z,5.80
2019-05-04T10:36:26.065Z,5.80
2019-05-04T10:38:54.841Z,6.10
2019-05-04T10:41:24.675Z,5.50
2019-05-04T10:43:51.445Z,5.33
2019-05-04T10:46:18.966Z,5.97
2019-05-04T10:48:46.240Z,7.60
2019-05-04T10:51:13.485Z,7.03
2019-05-04T10:53:41.892Z,5.97
2019-05-04T10:56:09.538Z,6.10
2019-05-04T10:58:36.875Z,6.03
2019-05-04T11:01:05.462Z,6.00
2019-05-04T11:03:35.054Z,5.67
2019-05-04T11:06:01.882Z,5.57
2019-05-04T11:08:29.145Z,5.57
2019-05-04T11:10:57.761Z,6.80
2019-05-04T11:13:25.134Z,6.57
2019-05-04T11:15:54.536Z,5.70
2019-05-04T11:18:21.373Z,6.13
2019-05-04T11:20:48.617Z,6.87
2019-05-04T11:23:15.853Z,6.60
2019-05-04T11:25:56.553Z,6.33
2019-05-04T11:28:31.529Z,7.10
2019-05-04T11:30:58.778Z,5.70
2019-05-04T11:33:26.031Z,6.20
2019-05-04T11:35:55.249Z,6.37
2019-05-04T11:38:22.666Z,5.97
2019-05-04T11:40:50.178Z,6.37
2019-05-04T11:43:29.024Z,7.03
2019-05-04T11:45:47.370Z,6.67
2019-05-04T11:48:14.654Z,6.87
2019-05-04T11:50:41.949Z,7.17
2019-05-04T11:53:09.199Z,5.90
2019-05-04T11:55:36.468Z,7.50
2019-05-04T11:58:05.218Z,6.57
2019-05-04T12:00:34.769Z,7.57
2019-05-04T12:03:04.796Z,6.83
2019-05-04T12:05:35.628Z,5.90
2019-05-04T12:08:14.779Z,6.20
2019-05-04T12:10:47.080Z,6.63
2019-05-04T12:13:14.466Z,7.07
2019-05-04T12:15:41.777Z,7.07
2019-05-04T12:18:09.026Z,6.00
2019-05-04T12:20:36.293Z,6.60
2019-05-04T12:23:03.782Z,7.00
2019-05-04T12:25:31.298Z,6.10
2019-05-04T12:27:58.554Z,5.60
2019-05-04T12:30:25.825Z,6.10
2019-05-04T12:32:54.560Z,5.13
2019-05-04T12:35:24.313Z,5.63
2019-05-04T12:37:51.253Z,4.53
2019-05-04T12:40:18.498Z,4.30
2019-05-04T12:42:45.762Z,4.47
2019-05-04T12:45:14.893Z,4.40
2019-05-04T12:47:42.473Z,4.87
2019-05-04T12:50:10.040Z,4.53
2019-05-04T12:52:37.554Z,4.90
2019-05-04T12:55:04.992Z,5.23
2019-05-04T12:57:32.554Z,4.43
2019-05-04T12:59:59.790Z,4.97
2019-05-04T13:02:27.124Z,4.90
2019-05-04T13:04:55.345Z,4.73
2019-05-04T13:07:24.766Z,4.83
2019-05-04T13:09:51.670Z,5.50
2019-05-04T13:12:18.946Z,4.70
2019-05-04T13:14:54.538Z,4.70
2019-05-04T13:17:30.910Z,5.33
2019-05-04T13:19:58.172Z,4.60
2019-05-04T13:22:25.485Z,5.73
2019-05-04T13:24:52.730Z,5.47
2019-05-04T13:27:19.998Z,5.40
2019-05-04T13:29:47.242Z,4.70
2019-05-04T13:32:14.763Z,5.07
2019-05-04T13:34:42.025Z,5.90
2019-05-04T13:37:09.280Z,5.77
2019-05-04T13:39:36.536Z,5.80
2019-05-04T13:42:05.254Z,5.33
2019-05-04T13:44:34.774Z,4.20
2019-05-04T13:47:01.628Z,4.00
2019-05-04T13:49:28.887Z,5.17
2019-05-04T13:51:56.378Z,4.93
2019-05-04T13:54:40.147Z,5.70
2019-05-04T13:57:20.584Z,5.43
2019-05-04T13:59:55.404Z,4.97
2019-05-04T14:02:24.327Z,4.77
2019-05-04T14:04:54.458Z,4.70
2019-05-04T14:07:21.830Z,3.60
2019-05-04T14:09:49.089Z,4.20
2019-05-04T14:12:16.357Z,3.50
2019-05-04T14:14:48.307Z,3.20
2019-05-04T14:17:12.584Z,3.07
2019-05-04T14:19:39.846Z,2.90
2019-05-04T14:22:07.165Z,2.70
2019-05-04T14:24:34.437Z,3.17
2019-05-04T14:27:01.682Z,2.60
2019-05-04T14:29:28.949Z,3.03
2019-05-04T14:31:56.195Z,2.70
2019-05-04T14:34:24.412Z,2.37
2019-05-04T14:36:52.078Z,2.60
2019-05-04T14:39:19.338Z,2.20
2019-05-04T14:41:46.841Z,2.20
2019-05-04T14:44:15.733Z,1.90
2019-05-04T14:46:50.573Z,1.70
2019-05-04T14:49:18.450Z,1.40
2019-05-04T14:51:45.696Z,1.50
2019-05-04T14:54:15.002Z,1.50
2019-05-04T14:56:42.421Z,1.57
2019-05-04T14:59:09.666Z,2.20
2019-05-04T15:01:36.933Z,1.53
2019-05-04T15:04:05.049Z,1.70
2019-05-04T15:06:32.567Z,2.30
2019-05-04T15:08:59.814Z,2.00
2019-05-04T15:11:27.078Z,2.20
2019-05-04T15:13:55.279Z,2.43
2019-05-04T15:16:25.052Z,1.93
2019-05-04T15:19:08.019Z,1.60
2019-05-04T15:21:35.290Z,1.50
2019-05-04T15:24:02.530Z,1.90
2019-05-04T15:26:29.795Z,1.57
2019-05-04T15:28:57.034Z,1.80
2019-05-04T15:31:24.666Z,1.40
2019-05-04T15:33:54.460Z,1.40
2019-05-04T15:36:21.414Z,1.53
2019-05-04T15:38:48.655Z,1.30
2019-05-04T15:41:16.011Z,1.10
2019-05-04T15:43:44.129Z,1.10
2019-05-04T15:46:11.510Z,1.03
2019-05-04T15:48:39.002Z,0.70
2019-05-04T15:51:20.032Z,1.00
2019-05-04T15:53:54.845Z,1.03
2019-05-04T15:56:32.538Z,1.17
2019-05-04T15:59:01.677Z,0.90
2019-05-04T16:01:28.939Z,1.67
2019-05-04T16:03:56.186Z,1.33
2019-05-04T16:06:23.427Z,1.40
2019-05-04T16:08:50.691Z,1.77
2019-05-04T16:11:17.934Z,1.80
2019-05-04T16:13:45.387Z,1.90
2019-05-04T16:16:14.355Z,2.07
2019-05-04T16:18:44.212Z,1.53
2019-05-04T16:21:10.969Z,1.50
2019-05-04T16:23:38.230Z,1.90
2019-05-04T16:26:06.163Z,1.67
2019-05-04T16:28:34.370Z,1.73
2019-05-04T16:31:01.983Z,1.90
2019-05-04T16:33:29.254Z,1.60
2019-05-04T16:35:56.539Z,1.93
2019-05-04T16:38:24.887Z,2.17
2019-05-04T16:40:54.264Z,1.80
2019-05-04T16:43:21.242Z,1.90
2019-05-04T16:45:55.715Z,2.10
2019-05-04T16:48:17.726Z,2.40
2019-05-04T16:51:04.027Z,2.50
2019-05-04T16:53:35.802Z,2.33
2019-05-04T16:56:04.856Z,2.23
2019-05-04T16:58:32.042Z,2.33
2019-05-04T17:01:17.476Z,2.57
2019-05-04T17:03:58.739Z,2.63
2019-05-04T17:06:26.258Z,2.50
2019-05-04T17:08:55.053Z,2.77
2019-05-04T17:11:24.803Z,2.70
2019-05-04T17:13:51.693Z,3.43
2019-05-04T17:16:19.222Z,3.07
2019-05-04T17:18:46.766Z,3.30
2019-05-04T17:21:18.989Z,3.33
2019-05-04T17:23:47.595Z,3.77
2019-05-04T17:26:24.180Z,3.70
2019-05-04T17:28:51.432Z,3.27
2019-05-04T17:31:20.320Z,3.97
2019-05-04T17:33:47.837Z,3.90
2019-05-04T17:36:15.379Z,3.07
2019-05-04T17:38:44.465Z,3.00
2019-05-04T17:41:19.292Z,2.90
2019-05-04T17:43:50.867Z,2.90
2019-05-04T17:46:23.283Z,3.10
2019-05-04T17:48:47.217Z,3.03
2019-05-04T17:51:14.565Z,3.00
2019-05-04T17:53:44.841Z,2.70
2019-05-04T17:56:12.817Z,2.30
2019-05-04T17:58:40.549Z,1.90
2019-05-04T18:01:12.374Z,1.97
2019-05-04T18:03:54.435Z,2.17
2019-05-04T18:06:22.074Z,2.30
2019-05-04T18:08:49.582Z,3.43
2019-05-04T18:11:18.742Z,2.83
2019-05-04T18:14:02.396Z,3.37
2019-05-04T18:16:45.207Z,3.13
2019-05-04T18:19:14.065Z,2.60
2019-05-04T18:21:41.073Z,2.90
2019-05-04T18:24:08.319Z,2.20
2019-05-04T18:26:35.583Z,2.87
2019-05-04T18:29:04.756Z,2.80
2019-05-04T18:31:32.229Z,2.90
2019-05-04T18:33:59.719Z,2.87
2019-05-04T18:36:27.234Z,3.30
2019-05-04T18:38:54.484Z,3.30
2019-05-04T18:41:24.657Z,3.00
2019-05-04T18:44:04.496Z,2.60
2019-05-04T18:46:36.002Z,3.00
2019-05-04T18:49:05.249Z,2.87
2019-05-04T18:51:32.821Z,2.97
2019-05-04T18:54:00.669Z,2.73
2019-05-04T18:56:28.663Z,2.67
2019-05-04T18:58:56.371Z,2.90
2019-05-04T19:01:25.266Z,2.90
2019-05-04T19:03:52.730Z,2.50
2019-05-04T19:06:21.800Z,2.80
2019-05-04T19:08:54.904Z,2.93
2019-05-04T19:11:22.654Z,3.00
2019-05-04T19:13:50.360Z,2.80
2019-05-04T19:16:17.593Z,3.20
2019-05-04T19:18:44.922Z,3.53
2019-05-04T19:21:19.504Z,3.50
2019-05-04T19:23:54.689Z,3.00
2019-05-04T19:26:24.441Z,3.50
2019-05-04T19:28:51.818Z,3.43
2019-05-04T19:31:19.347Z,3.20
2019-05-04T19:33:46.615Z,2.60
2019-05-04T19:36:15.331Z,4.50
2019-05-04T19:38:42.714Z,3.20
2019-05-04T19:41:09.956Z,3.60
2019-05-04T19:43:39.119Z,3.30
2019-05-04T19:46:15.340Z,3.77
2019-05-04T19:48:45.630Z,4.67
2019-05-04T19:51:14.568Z,3.87
2019-05-04T19:53:42.174Z,4.00
2019-05-04T19:56:11.783Z,5.73
2019-05-04T19:58:41.915Z,3.93
2019-05-04T20:01:09.369Z,4.00
2019-05-04T20:03:36.952Z,5.10
2019-05-04T20:06:04.847Z,5.50
2019-05-04T20:08:34.449Z,4.87
2019-05-04T20:11:06.251Z,4.57
2019-05-04T20:13:35.464Z,4.60
2019-05-04T20:16:02.482Z,5.60
2019-05-04T20:18:29.764Z,3.87
2019-05-04T20:21:00.578Z,4.40
2019-05-04T20:23:27.936Z,4.60
2019-05-04T20:25:55.430Z,3.90
2019-05-04T20:28:22.679Z,3.90
2019-05-04T20:30:49.943Z,4.03
2019-05-04T20:33:17.186Z,4.23
2019-05-04T20:35:46.167Z,3.60
2019-05-04T20:38:15.252Z,3.83
2019-05-04T20:40:44.828Z,4.50
2019-05-04T20:43:11.713Z,4.80
2019-05-04T20:45:49.657Z,4.90
2019-05-04T20:48:25.456Z,4.13
2019-05-04T20:50:53.453Z,4.47
2019-05-04T20:53:31.366Z,4.70
2019-05-04T20:55:58.711Z,4.90
2019-05-04T20:58:26.214Z,4.67
2019-05-04T21:00:54.410Z,5.10
2019-05-04T21:03:39.842Z,5.50
2019-05-04T21:06:24.166Z,4.70
2019-05-04T21:08:51.511Z,4.60
2019-05-04T21:11:19.310Z,5.10
2019-05-04T21:13:46.873Z,5.50
2019-05-04T21:16:14.860Z,6.10
2019-05-04T21:18:44.219Z,5.27
2019-05-04T21:21:14.953Z,5.50
2019-05-04T21:23:42.081Z,5.53
2019-05-04T21:26:09.937Z,5.30
2019-05-04T21:28:37.546Z,5.17
2019-05-04T21:31:06.735Z,5.07
2019-05-04T21:33:35.547Z,5.50
2019-05-04T21:36:04.318Z,5.90
2019-05-04T21:38:31.703Z,5.80
2019-05-04T21:40:58.971Z,5.90
2019-05-04T21:43:28.101Z,6.30
2019-05-04T21:46:00.445Z,6.93
2019-05-04T21:48:44.150Z,6.70
2019-05-04T21:51:14.352Z,5.90
2019-05-04T21:53:41.785Z,5.60
2019-05-04T21:56:09.054Z,6.50
2019-05-04T21:58:36.553Z,6.73
2019-05-04T22:01:08.221Z,6.93
2019-05-04T22:03:44.417Z,7.73
2019-05-04T22:06:11.801Z,7.17
2019-05-04T22:08:39.403Z,6.80
2019-05-04T22:11:06.671Z,6.57
2019-05-04T22:13:34.869Z,7.80
2019-05-04T22:16:02.259Z,7.87
2019-05-04T22:18:30.469Z,8.00
2019-05-04T22:20:57.846Z,6.77
2019-05-04T22:23:25.098Z,7.73
2019-05-04T22:25:52.425Z,9.00
2019-05-04T22:28:19.698Z,7.60
2019-05-04T22:30:46.942Z,7.53
2019-05-04T22:33:14.210Z,8.30
2019-05-04T22:35:41.711Z,6.97
2019-05-04T22:38:26.800Z,8.50
2019-05-04T22:40:56.271Z,7.53
2019-05-04T22:43:24.894Z,8.50
2019-05-04T22:45:52.262Z,8.70
2019-05-04T22:48:19.607Z,9.30
2019-05-04T22:50:46.854Z,9.30
2019-05-04T22:53:21.867Z,8.03
2019-05-04T22:55:53.477Z,8.10
2019-05-04T22:58:25.590Z,8.70
2019-05-04T23:01:05.056Z,8.20
2019-05-04T23:03:36.923Z,7.13
2019-05-04T23:06:04.410Z,7.60
2019-05-04T23:08:31.938Z,7.10
2019-05-04T23:10:59.611Z,8.43
2019-05-04T23:13:26.942Z,7.13
2019-05-04T23:15:54.459Z,8.07
2019-05-04T23:18:21.730Z,7.50
2019-05-04T23:20:48.984Z,9.67
2019-05-04T23:23:17.626Z,7.87
2019-05-04T23:25:45.139Z,7.17
2019-05-04T23:28:14.448Z,7.07
2019-05-04T23:30:41.362Z,6.87
2019-05-04T23:33:08.871Z,7.50
2019-05-04T23:35:36.190Z,8.00
2019-05-04T23:38:04.468Z,6.73
2019-05-04T23:40:34.718Z,6.03
2019-05-04T23:43:02.144Z,6.90
2019-05-04T23:45:29.454Z,8.20
2019-05-04T23:48:05.230Z,7.00
2019-05-04T23:50:34.668Z,7.10
2019-05-04T23:53:01.515Z,7.43
2019-05-04T23:55:29.041Z,6.60
2019-05-04T23:57:56.534Z,6.60
